Rio, Louisiana
Current Conditions -  °F | °C
As of 5:55 PM on Wednesday 22 Oct 2014 (Local Time) from KBXA Reporting Station
Clear Clear  
Wind Chill: 75°   Ceiling: Unl
Heat Index: 75°   Visibility: NA
Dew Point: 48°   Wind: 5mph
Humidity: 38%   Direction: 20°NNE
Pressure: 30.06"   Gusts: NA
Location:  30.7419°N, 89.8828°W
Report Text: KBXA 222255Z AUTO 02004KT CLR 24/09 A3006 RMK AO2 T02370087 PWINO
Loading
Personal Weather Stations






























Interactive Weather Map
Tropical Storm Tracking
New forecast layout! Learn more

10-Day Weather Forecast

Advertisements
Track Severe Weather on mobile